createdAt,value
2022-11-21T00:01:48.585Z,5.60
2022-11-21T00:04:18.403Z,5.60
2022-11-21T00:06:52.904Z,5.60
2022-11-21T00:09:22.647Z,5.70
2022-11-21T00:11:53.981Z,5.80
2022-11-21T00:14:23.756Z,5.80
2022-11-21T00:16:57.324Z,5.90
2022-11-21T00:19:27.392Z,5.80
2022-11-21T00:21:59.796Z,5.90
2022-11-21T00:24:29.721Z,5.90
2022-11-21T00:26:59.600Z,5.90
2022-11-21T00:29:29.451Z,5.90
2022-11-21T00:31:59.191Z,5.80
2022-11-21T00:34:29.260Z,5.70
2022-11-21T00:37:01.748Z,5.60
2022-11-21T00:39:31.613Z,5.50
2022-11-21T00:42:01.410Z,5.50
2022-11-21T00:44:31.207Z,5.40
2022-11-21T00:47:01.035Z,5.30
2022-11-21T00:49:30.788Z,5.30
2022-11-21T00:52:03.208Z,5.30
2022-11-21T00:54:33.057Z,5.30
2022-11-21T00:57:02.881Z,5.30
2022-11-21T00:59:32.636Z,5.20
2022-11-21T01:02:02.387Z,5.20
2022-11-21T01:04:34.590Z,5.20
2022-11-21T01:07:07.112Z,5.20
2022-11-21T01:09:37.035Z,5.20
2022-11-21T01:12:07.348Z,5.10
2022-11-21T01:14:37.202Z,5.10
2022-11-21T01:17:07.016Z,5.10
2022-11-21T01:19:37.008Z,5.20
2022-11-21T01:22:09.448Z,5.20
2022-11-21T01:24:39.215Z,5.30
2022-11-21T01:27:09.019Z,5.30
2022-11-21T01:29:38.813Z,5.40
2022-11-21T01:32:08.647Z,5.30
2022-11-21T01:34:38.431Z,5.30
2022-11-21T01:37:10.820Z,5.30
2022-11-21T01:39:40.540Z,5.30
2022-11-21T01:42:12.453Z,5.20
2022-11-21T01:44:54.495Z,5.20
2022-11-21T01:47:25.231Z,5.20
2022-11-21T01:49:56.708Z,5.30
2022-11-21T01:52:34.948Z,5.20
2022-11-21T01:55:08.418Z,5.20
2022-11-21T01:57:42.539Z,5.20
2022-11-21T02:00:18.706Z,5.10
2022-11-21T02:02:52.356Z,5.10
2022-11-21T02:05:25.927Z,5.10
2022-11-21T02:08:01.650Z,5.10
2022-11-21T02:10:31.746Z,5.10
2022-11-21T02:13:03.007Z,5.10
2022-11-21T02:15:33.104Z,5.10
2022-11-21T02:18:02.980Z,5.10
2022-11-21T02:20:33.100Z,5.10
2022-11-21T02:23:11.556Z,5.10
2022-11-21T02:25:45.781Z,5.10
2022-11-21T02:28:17.939Z,5.10
2022-11-21T02:30:47.896Z,5.20
2022-11-21T02:33:18.884Z,5.10
2022-11-21T02:35:57.955Z,5.20
2022-11-21T02:38:31.985Z,5.20
2022-11-21T02:41:14.421Z,5.20
2022-11-21T02:43:47.711Z,5.20
2022-11-21T02:46:17.492Z,5.20
2022-11-21T02:48:47.568Z,5.10
2022-11-21T02:51:17.472Z,5.10
2022-11-21T02:53:47.318Z,5.10
2022-11-21T02:56:19.740Z,5.00
2022-11-21T02:58:49.745Z,5.10
2022-11-21T03:01:19.609Z,5.00
2022-11-21T03:03:49.441Z,5.00
2022-11-21T03:06:19.247Z,5.00
2022-11-21T03:08:49.267Z,5.00
2022-11-21T03:11:21.641Z,5.00
2022-11-21T03:13:51.448Z,4.90
2022-11-21T03:16:21.204Z,4.80
2022-11-21T03:18:51.123Z,4.80
2022-11-21T03:21:21.465Z,4.80
2022-11-21T03:23:51.289Z,4.80
2022-11-21T03:26:23.643Z,4.80
2022-11-21T03:28:53.411Z,4.80
2022-11-21T03:31:23.145Z,4.80
2022-11-21T03:33:52.994Z,4.80
2022-11-21T03:36:22.801Z,4.80
2022-11-21T03:38:52.626Z,4.80
2022-11-21T03:41:33.824Z,4.80
2022-11-21T03:44:05.376Z,4.80
2022-11-21T03:46:37.648Z,4.80
2022-11-21T03:49:08.107Z,4.80
2022-11-21T03:51:39.055Z,4.80
2022-11-21T03:54:09.737Z,4.90
2022-11-21T03:56:42.524Z,4.90
2022-11-21T03:59:12.273Z,4.90
2022-11-21T04:01:42.130Z,5.00
2022-11-21T04:04:12.021Z,4.90
2022-11-21T04:06:41.840Z,5.00
2022-11-21T04:09:11.911Z,5.00
2022-11-21T04:11:44.266Z,5.00
2022-11-21T04:14:14.068Z,5.00
2022-11-21T04:16:43.801Z,5.10
2022-11-21T04:19:13.584Z,5.10
2022-11-21T04:21:43.430Z,5.10
2022-11-21T04:24:13.317Z,5.10
2022-11-21T04:26:45.675Z,5.10
2022-11-21T04:29:15.422Z,5.10
2022-11-21T04:31:45.187Z,5.20
2022-11-21T04:34:15.003Z,5.20
2022-11-21T04:36:44.844Z,5.20
2022-11-21T04:39:14.646Z,5.20
2022-11-21T04:41:47.011Z,5.30
2022-11-21T04:44:16.820Z,5.20
2022-11-21T04:46:46.635Z,5.30
2022-11-21T04:49:16.701Z,5.30
2022-11-21T04:51:46.517Z,5.30
2022-11-21T04:54:16.513Z,5.30
2022-11-21T04:56:48.899Z,5.40
2022-11-21T04:59:18.660Z,5.40
2022-11-21T05:01:48.445Z,5.40
2022-11-21T05:04:18.223Z,5.50
2022-11-21T05:06:47.971Z,5.60
2022-11-21T05:09:17.883Z,5.70
2022-11-21T05:12:02.820Z,5.70
2022-11-21T05:14:32.419Z,5.80
2022-11-21T05:17:02.192Z,5.80
2022-11-21T05:19:31.937Z,5.90
2022-11-21T05:22:01.728Z,5.90
2022-11-21T05:24:31.545Z,5.90
2022-11-21T05:27:03.941Z,6.00
2022-11-21T05:29:33.759Z,6.00
2022-11-21T05:32:03.567Z,6.00
2022-11-21T05:34:33.313Z,6.00
2022-11-21T05:37:03.205Z,6.10
2022-11-21T05:39:33.094Z,6.20
2022-11-21T05:42:05.642Z,6.10
2022-11-21T05:44:32.850Z,6.20
2022-11-21T05:47:02.636Z,6.20
2022-11-21T05:49:32.418Z,6.20
2022-11-21T05:52:02.192Z,6.20
2022-11-21T05:54:31.991Z,6.10
2022-11-21T05:57:01.741Z,6.20
2022-11-21T05:59:34.157Z,6.20
2022-11-21T06:02:16.404Z,6.20
2022-11-21T06:04:46.192Z,6.20
2022-11-21T06:07:16.180Z,6.10
2022-11-21T06:09:46.039Z,6.10
2022-11-21T06:12:15.800Z,6.10
2022-11-21T06:14:48.119Z,6.00
2022-11-21T06:17:17.920Z,5.90
2022-11-21T06:19:47.696Z,5.80
2022-11-21T06:22:17.505Z,5.80
2022-11-21T06:24:47.308Z,5.80
2022-11-21T06:27:17.076Z,5.80
2022-11-21T06:29:49.468Z,5.80
2022-11-21T06:32:19.530Z,5.80
2022-11-21T06:34:49.379Z,5.80
2022-11-21T06:37:19.304Z,5.90
2022-11-21T06:39:49.104Z,5.90
2022-11-21T06:42:18.856Z,5.90
2022-11-21T06:44:51.236Z,5.90
2022-11-21T06:47:21.357Z,5.90
2022-11-21T06:49:51.148Z,6.00
2022-11-21T06:52:20.946Z,6.00
2022-11-21T06:54:50.735Z,6.00
2022-11-21T06:57:20.519Z,6.00
2022-11-21T06:59:52.901Z,6.00
2022-11-21T07:02:22.736Z,6.00
2022-11-21T07:04:52.556Z,6.00
2022-11-21T07:07:22.430Z,6.00
2022-11-21T07:09:52.645Z,5.90
2022-11-21T07:12:34.896Z,5.90
2022-11-21T07:15:08.085Z,5.80
2022-11-21T07:17:37.886Z,5.80
2022-11-21T07:20:09.065Z,5.80
2022-11-21T07:22:38.829Z,5.80
2022-11-21T07:25:09.335Z,5.90
2022-11-21T07:27:39.136Z,6.00
2022-11-21T07:30:13.171Z,6.00
2022-11-21T07:32:43.289Z,6.10
2022-11-21T07:35:13.112Z,6.00
2022-11-21T07:37:43.158Z,6.10
2022-11-21T07:40:13.619Z,6.10
2022-11-21T07:42:43.520Z,6.20
2022-11-21T07:45:17.154Z,6.30
2022-11-21T07:47:47.280Z,6.30
2022-11-21T07:50:17.796Z,6.40
2022-11-21T07:52:47.719Z,6.30
2022-11-21T07:55:17.794Z,6.30
2022-11-21T07:57:47.669Z,6.30
2022-11-21T08:00:21.256Z,6.30
2022-11-21T08:02:51.053Z,6.30
2022-11-21T08:05:21.157Z,6.30
2022-11-21T08:07:51.079Z,6.30
2022-11-21T08:10:21.687Z,6.40
2022-11-21T08:12:51.734Z,6.50
2022-11-21T08:15:24.292Z,6.60
2022-11-21T08:17:54.130Z,6.70
2022-11-21T08:20:24.121Z,6.90
2022-11-21T08:22:54.012Z,6.80
2022-11-21T08:25:23.827Z,6.80
2022-11-21T08:27:53.665Z,6.80
2022-11-21T08:30:26.374Z,6.80
2022-11-21T08:32:56.392Z,6.80
2022-11-21T08:35:26.403Z,6.90
2022-11-21T08:37:59.847Z,7.00
2022-11-21T08:40:31.401Z,7.10
2022-11-21T08:43:01.561Z,7.20
2022-11-21T08:45:34.675Z,7.40
2022-11-21T08:48:04.614Z,7.30
2022-11-21T08:50:34.682Z,7.30
2022-11-21T08:53:05.046Z,7.30
2022-11-21T08:55:35.044Z,7.40
2022-11-21T08:58:04.972Z,7.50
2022-11-21T09:00:37.663Z,7.60
2022-11-21T09:03:07.942Z,7.70
2022-11-21T09:05:37.823Z,7.90
2022-11-21T09:08:08.070Z,7.90
2022-11-21T09:10:38.274Z,7.70
2022-11-21T09:13:08.300Z,7.70
2022-11-21T09:15:53.310Z,7.70
2022-11-21T09:18:23.400Z,7.90
2022-11-21T09:20:53.640Z,7.70
2022-11-21T09:23:23.500Z,7.70
2022-11-21T09:25:53.328Z,7.80
2022-11-21T09:28:23.153Z,7.90
2022-11-21T09:30:55.558Z,8.10
2022-11-21T09:33:25.385Z,8.00
2022-11-21T09:35:55.145Z,8.10
2022-11-21T09:38:26.598Z,8.10
2022-11-21T09:41:23.556Z,8.00
2022-11-21T09:44:04.108Z,8.10
2022-11-21T09:46:43.756Z,8.10
2022-11-21T09:49:15.827Z,8.20
2022-11-21T09:51:47.999Z,8.10
2022-11-21T09:54:26.979Z,8.10
2022-11-21T09:56:59.742Z,8.20
2022-11-21T09:59:37.167Z,8.10
2022-11-21T10:02:17.903Z,8.10
2022-11-21T10:04:49.285Z,8.00
2022-11-21T10:07:24.998Z,8.00
2022-11-21T10:10:20.631Z,8.10
2022-11-21T10:13:05.048Z,8.10
2022-11-21T10:15:43.912Z,8.30
2022-11-21T10:19:00.788Z,8.50
2022-11-21T10:21:47.961Z,8.60
2022-11-21T10:24:35.973Z,8.60
2022-11-21T10:27:09.351Z,8.60
2022-11-21T10:29:43.077Z,8.50
2022-11-21T10:32:21.337Z,8.50
2022-11-21T10:34:55.441Z,8.60
2022-11-21T10:37:34.582Z,8.40
2022-11-21T10:40:17.336Z,8.50
2022-11-21T10:42:54.752Z,8.40
2022-11-21T10:45:26.160Z,8.20
2022-11-21T10:47:56.895Z,7.90
2022-11-21T10:50:41.569Z,7.20
2022-11-21T10:53:31.482Z,7.00
2022-11-21T10:56:05.410Z,6.80
2022-11-21T10:58:43.989Z,6.30
2022-11-21T11:01:28.538Z,6.10
2022-11-21T11:07:23.306Z,6.10
2022-11-21T11:09:53.819Z,6.00
2022-11-21T11:12:45.499Z,6.00
2022-11-21T11:15:21.948Z,6.20
2022-11-21T11:17:57.813Z,6.20
2022-11-21T11:20:39.797Z,6.30
2022-11-21T11:23:30.602Z,6.30
2022-11-21T11:26:02.021Z,6.30
2022-11-21T11:28:38.560Z,6.50
2022-11-21T11:31:09.085Z,6.80
2022-11-21T11:33:40.652Z,6.70
2022-11-21T11:36:16.983Z,6.90
2022-11-21T11:38:56.055Z,7.20
2022-11-21T11:42:04.683Z,7.30
2022-11-21T11:44:58.116Z,7.30
2022-11-21T11:47:34.027Z,7.10
2022-11-21T11:50:15.620Z,7.10
2022-11-21T11:52:55.344Z,7.10
2022-11-21T11:55:34.721Z,7.20
2022-11-21T11:58:09.471Z,7.10
2022-11-21T12:00:44.915Z,7.10
2022-11-21T12:03:19.565Z,7.10
2022-11-21T12:06:09.262Z,7.00
2022-11-21T12:08:48.843Z,6.90
2022-11-21T12:11:42.420Z,6.90
2022-11-21T12:14:47.267Z,7.00
2022-11-21T12:17:20.707Z,7.20
2022-11-21T12:19:52.769Z,7.30
2022-11-21T12:22:22.748Z,7.30
2022-11-21T12:24:52.611Z,7.40
2022-11-21T12:27:32.340Z,7.50
2022-11-21T12:30:26.431Z,7.60
2022-11-21T12:33:06.615Z,7.60
2022-11-21T12:36:18.359Z,7.70
2022-11-21T12:39:20.169Z,7.60
2022-11-21T12:42:09.959Z,7.60
2022-11-21T12:44:57.217Z,7.60
2022-11-21T12:47:57.536Z,7.60
2022-11-21T12:50:46.694Z,7.60
2022-11-21T12:53:41.263Z,7.80
2022-11-21T12:56:28.501Z,7.90
2022-11-21T12:58:59.815Z,8.00
2022-11-21T13:01:40.605Z,8.00
2022-11-21T13:04:15.230Z,8.00
2022-11-21T13:06:48.186Z,8.00
2022-11-21T13:09:21.891Z,8.10
2022-11-21T13:12:02.980Z,8.20
2022-11-21T13:14:40.925Z,8.30
2022-11-21T13:17:24.896Z,8.30
2022-11-21T13:19:59.091Z,8.40
2022-11-21T13:22:59.924Z,8.40
2022-11-21T13:25:47.469Z,8.40
2022-11-21T13:28:38.755Z,8.40
2022-11-21T13:31:30.690Z,8.20
2022-11-21T13:34:03.785Z,8.00
2022-11-21T13:36:54.252Z,8.00
2022-11-21T13:39:30.837Z,8.10
2022-11-21T13:42:27.247Z,8.10
2022-11-21T13:44:57.699Z,8.10
2022-11-21T13:48:18.728Z,8.20
2022-11-21T13:51:10.914Z,8.30
2022-11-21T13:54:06.100Z,8.30
2022-11-21T13:56:39.730Z,8.30
2022-11-21T13:59:32.734Z,8.30
2022-11-21T14:02:24.361Z,8.20
2022-11-21T14:05:08.162Z,8.20
2022-11-21T14:07:42.571Z,8.10
2022-11-21T14:10:21.229Z,8.10
2022-11-21T14:12:53.047Z,8.00
2022-11-21T14:15:31.857Z,8.00
2022-11-21T14:18:02.669Z,8.00
2022-11-21T14:20:37.203Z,7.90
2022-11-21T14:23:19.151Z,7.90
2022-11-21T14:25:51.998Z,7.90
2022-11-21T14:28:26.944Z,7.90
2022-11-21T14:31:02.022Z,7.90
2022-11-21T14:33:34.741Z,7.90
2022-11-21T14:36:08.204Z,7.80
2022-11-21T14:38:45.125Z,7.80
2022-11-21T14:41:27.234Z,7.80
2022-11-21T14:44:18.650Z,7.70
2022-11-21T14:46:49.595Z,7.70
2022-11-21T14:49:29.651Z,7.70
2022-11-21T14:52:19.346Z,7.60
2022-11-21T14:57:45.898Z,7.60
2022-11-21T15:00:58.729Z,7.60
2022-11-21T15:03:21.922Z,7.50
2022-11-21T15:06:04.003Z,7.50
2022-11-21T15:11:32.725Z,7.50
2022-11-21T15:14:16.935Z,7.40
2022-11-21T15:16:49.126Z,7.40
2022-11-21T15:19:27.054Z,7.40
2022-11-21T15:21:59.959Z,7.30
2022-11-21T15:24:37.595Z,7.30
2022-11-21T15:27:36.244Z,7.20
2022-11-21T15:30:24.337Z,7.20
2022-11-21T15:33:09.152Z,7.20
2022-11-21T15:35:51.451Z,7.20
2022-11-21T15:38:27.461Z,7.10
2022-11-21T15:41:09.523Z,7.00
2022-11-21T15:43:45.031Z,7.00
2022-11-21T15:46:20.398Z,7.00
2022-11-21T15:48:51.672Z,6.90
2022-11-21T15:51:44.078Z,6.90
2022-11-21T15:54:15.074Z,6.90
2022-11-21T15:56:47.183Z,6.90
2022-11-21T15:59:21.261Z,6.90
2022-11-21T16:01:51.039Z,6.70
2022-11-21T16:04:25.297Z,6.70
2022-11-21T16:06:55.840Z,6.60
2022-11-21T16:09:25.746Z,6.70
2022-11-21T16:11:55.587Z,6.60
2022-11-21T16:17:02.977Z,6.50
2022-11-21T16:19:32.917Z,6.50
2022-11-21T16:22:02.912Z,6.40
2022-11-21T16:24:32.680Z,6.40
2022-11-21T16:27:02.779Z,6.30
2022-11-21T16:29:35.204Z,6.20
2022-11-21T16:32:05.657Z,6.20
2022-11-21T16:34:35.564Z,6.20
2022-11-21T16:37:07.433Z,6.10
2022-11-21T16:39:37.586Z,6.10
2022-11-21T16:42:07.499Z,6.10
2022-11-21T16:44:39.975Z,6.30
2022-11-21T16:47:09.715Z,6.20
2022-11-21T16:49:43.072Z,6.10
2022-11-21T16:52:13.460Z,6.00
2022-11-21T16:54:43.406Z,5.90
2022-11-21T16:57:13.141Z,5.90
2022-11-21T16:59:45.482Z,5.70
2022-11-21T17:02:15.234Z,5.70
2022-11-21T17:04:45.068Z,5.60
2022-11-21T17:07:14.875Z,5.60
2022-11-21T17:09:44.717Z,5.60
2022-11-21T17:12:14.681Z,5.60
2022-11-21T17:14:47.500Z,5.60
2022-11-21T17:17:17.324Z,5.70
2022-11-21T17:19:47.127Z,5.70
2022-11-21T17:22:23.071Z,5.80
2022-11-21T17:24:54.331Z,5.80
2022-11-21T17:27:24.677Z,5.90
2022-11-21T17:29:57.093Z,5.80
2022-11-21T17:32:26.911Z,5.80
2022-11-21T17:34:56.693Z,5.80
2022-11-21T17:37:26.504Z,5.80
2022-11-21T17:39:56.328Z,5.80
2022-11-21T17:42:28.295Z,5.80
2022-11-21T17:45:00.659Z,5.70
2022-11-21T17:47:30.450Z,5.60
2022-11-21T17:50:05.719Z,5.60
2022-11-21T17:52:36.416Z,5.70
2022-11-21T17:55:06.639Z,5.70
2022-11-21T17:57:36.445Z,5.70
2022-11-21T18:00:10.246Z,5.70
2022-11-21T18:02:40.279Z,5.70
2022-11-21T18:05:10.307Z,5.70
2022-11-21T18:07:40.425Z,5.50
2022-11-21T18:10:40.761Z,5.50
2022-11-21T18:13:00.969Z,5.40
2022-11-21T18:15:33.500Z,5.40
2022-11-21T18:18:04.609Z,5.60
2022-11-21T18:20:34.325Z,5.70
2022-11-21T18:23:04.243Z,5.70
2022-11-21T18:25:37.059Z,5.70
2022-11-21T18:28:07.688Z,5.70
2022-11-21T18:30:40.127Z,5.70
2022-11-21T18:33:12.378Z,5.70
2022-11-21T18:35:46.969Z,5.70
2022-11-21T18:38:46.273Z,5.70
2022-11-21T18:41:07.752Z,5.70
2022-11-21T18:43:37.734Z,5.80
2022-11-21T18:46:11.788Z,5.70
2022-11-21T18:49:01.368Z,5.70
2022-11-21T18:51:34.573Z,5.70
2022-11-21T18:54:07.417Z,5.70
2022-11-21T18:56:38.076Z,5.70
2022-11-21T18:59:08.707Z,5.70
2022-11-21T19:01:42.121Z,5.70
2022-11-21T19:04:12.327Z,5.60
2022-11-21T19:06:42.122Z,5.60
2022-11-21T19:09:11.999Z,5.60
2022-11-21T19:11:41.889Z,5.60
2022-11-21T19:14:11.931Z,5.60
2022-11-21T19:16:44.256Z,5.60
2022-11-21T19:22:06.231Z,5.70
2022-11-21T19:24:36.323Z,5.70
2022-11-21T19:27:06.195Z,5.60
2022-11-21T19:29:35.969Z,5.60
2022-11-21T19:32:08.360Z,5.60
2022-11-21T19:34:38.160Z,5.70
2022-11-21T19:37:07.963Z,5.70
2022-11-21T19:39:37.712Z,5.70
2022-11-21T19:42:07.759Z,5.80
2022-11-21T19:44:37.595Z,5.90
2022-11-21T19:47:10.634Z,5.80
2022-11-21T19:49:40.416Z,5.80
2022-11-21T19:52:10.284Z,5.80
2022-11-21T19:54:40.083Z,5.80
2022-11-21T19:57:13.871Z,5.80
2022-11-21T19:59:46.865Z,5.80
2022-11-21T20:02:21.824Z,5.70
2022-11-21T20:04:51.715Z,5.70
2022-11-21T20:07:21.526Z,5.80
2022-11-21T20:09:51.422Z,5.70
2022-11-21T20:12:21.224Z,5.80
2022-11-21T20:14:53.644Z,5.80
2022-11-21T20:17:25.962Z,5.80
2022-11-21T20:19:57.909Z,5.70
2022-11-21T20:22:27.759Z,5.70
2022-11-21T20:24:57.615Z,5.80
2022-11-21T20:27:27.489Z,5.70
2022-11-21T20:29:57.496Z,5.70
2022-11-21T20:32:29.938Z,5.80
2022-11-21T20:34:59.979Z,5.70
2022-11-21T20:37:29.727Z,5.70
2022-11-21T20:39:59.520Z,5.70
2022-11-21T20:42:29.367Z,5.70
2022-11-21T20:47:51.503Z,5.60
2022-11-21T20:50:40.242Z,5.60
2022-11-21T20:56:05.312Z,5.60
2022-11-21T20:58:38.035Z,5.60
2022-11-21T21:01:09.325Z,5.60
2022-11-21T21:03:42.296Z,5.60
2022-11-21T21:06:14.237Z,5.60
2022-11-21T21:08:44.196Z,5.70
2022-11-21T21:11:36.783Z,5.80
2022-11-21T21:14:05.928Z,5.80
2022-11-21T21:16:36.314Z,5.80
2022-11-21T21:19:08.732Z,5.80
2022-11-21T21:21:40.173Z,5.80
2022-11-21T21:24:11.797Z,5.90
2022-11-21T21:26:43.948Z,5.90
2022-11-21T21:29:14.489Z,5.80
2022-11-21T21:31:50.531Z,5.80
2022-11-21T21:34:24.852Z,5.90
2022-11-21T21:36:54.754Z,5.90
2022-11-21T21:39:24.527Z,6.00
2022-11-21T21:41:54.297Z,6.00
2022-11-21T21:44:29.856Z,6.00
2022-11-21T21:47:02.709Z,6.00
2022-11-21T21:49:35.099Z,6.00
2022-11-21T21:52:04.867Z,6.00
2022-11-21T21:54:34.627Z,6.10
2022-11-21T21:57:04.474Z,6.10
2022-11-21T21:59:34.619Z,6.10
2022-11-21T22:02:04.808Z,6.20
2022-11-21T22:04:37.291Z,6.10
2022-11-21T22:07:08.735Z,6.20
2022-11-21T22:09:38.882Z,6.20
2022-11-21T22:12:09.085Z,6.20
2022-11-21T22:14:38.924Z,6.20
2022-11-21T22:17:08.747Z,6.10
2022-11-21T22:19:41.103Z,6.10
2022-11-21T22:22:10.891Z,6.10
2022-11-21T22:24:41.311Z,6.10
2022-11-21T22:27:11.527Z,6.10
2022-11-21T22:29:41.939Z,6.10
2022-11-21T22:32:14.228Z,6.10
2022-11-21T22:34:50.724Z,6.10
2022-11-21T22:37:20.591Z,6.10
2022-11-21T22:39:50.408Z,6.10
2022-11-21T22:42:20.260Z,6.10
2022-11-21T22:44:50.076Z,6.10
2022-11-21T22:47:21.332Z,6.10
2022-11-21T22:49:53.732Z,6.20
2022-11-21T22:52:23.561Z,6.10
2022-11-21T22:54:53.397Z,6.10
2022-11-21T22:57:23.144Z,6.20
2022-11-21T22:59:52.843Z,6.20
2022-11-21T23:02:22.785Z,6.20
2022-11-21T23:04:55.212Z,6.20
2022-11-21T23:07:25.088Z,6.10
2022-11-21T23:09:54.896Z,6.10
2022-11-21T23:12:24.764Z,6.00
2022-11-21T23:14:54.644Z,6.00
2022-11-21T23:17:24.441Z,5.90
2022-11-21T23:19:56.775Z,6.00
2022-11-21T23:22:26.592Z,5.90
2022-11-21T23:24:56.414Z,5.90
2022-11-21T23:27:26.391Z,5.80
2022-11-21T23:29:56.155Z,5.80
2022-11-21T23:32:25.912Z,5.80
2022-11-21T23:34:58.323Z,5.80
2022-11-21T23:37:28.111Z,5.90
2022-11-21T23:39:57.881Z,5.90
2022-11-21T23:42:27.616Z,5.90
2022-11-21T23:44:57.379Z,5.90
2022-11-21T23:47:27.123Z,5.80
2022-11-21T23:49:59.483Z,5.80
2022-11-21T23:52:29.320Z,5.70
2022-11-21T23:54:59.132Z,5.70
2022-11-21T23:57:28.904Z,5.70
2022-11-21T23:59:58.749Z,5.70
